FDX1121 KLAX-KLAS
Flight info
| Callsign | FDX1121 |
|---|---|
| Flight time | 0h 53m |
| Altitude | 29000 |
| Route | ORCKA5 MISEN RNDRZ3 |
| Aircraft | MD11/H-SDE1E2E3FGHIJ2J3J4J5M1RWXY/LB1D1 |
Departure
| Time | 2026-05-04 03:46 |
|---|---|
| Airport | Los Angeles International Airport (KLAX) |
Arrival
| Time | 2026-05-04 04:40 |
|---|---|
| Airport | Harry Reid International Airport (KLAS) |
| Time | Latitude | Longitude | Altitude | Speed | Heading |
|---|---|---|---|---|---|
| 2026-05-04 02:54 | 33.93328 | -118.38039 | 133 ft | 0 kts | 136° |
| 2026-05-04 03:33 | 33.93341 | -118.38054 | 127 ft | 3 kts | 136° |
| 2026-05-04 03:33 | 33.93353 | -118.38068 | 133 ft | 2 kts | 136° |
| 2026-05-04 03:33 | 33.93364 | -118.38081 | 127 ft | 0 kts | 136° |
| 2026-05-04 03:34 | 33.93362 | -118.38074 | 125 ft | 4 kts | 119° |
| 2026-05-04 03:34 | 33.93361 | -118.38065 | 126 ft | 0 kts | 102° |
| 2026-05-04 03:35 | 33.93363 | -118.38079 | 124 ft | 2 kts | 102° |
| 2026-05-04 03:35 | 33.93367 | -118.38099 | 133 ft | 2 kts | 102° |
| 2026-05-04 03:35 | 33.93370 | -118.38119 | 131 ft | 2 kts | 102° |
| 2026-05-04 03:35 | 33.93368 | -118.38108 | 129 ft | 8 kts | 101° |
| 2026-05-04 03:36 | 33.93372 | -118.38081 | 131 ft | 0 kts | 66° |
| 2026-05-04 03:37 | 33.93368 | -118.38091 | 133 ft | 2 kts | 66° |
| 2026-05-04 03:37 | 33.93361 | -118.38110 | 133 ft | 2 kts | 66° |
| 2026-05-04 03:37 | 33.93354 | -118.38128 | 133 ft | 2 kts | 66° |
| 2026-05-04 03:37 | 33.93351 | -118.38138 | 133 ft | 2 kts | 66° |
| 2026-05-04 03:38 | 33.93364 | -118.38111 | 133 ft | 5 kts | 50° |
| 2026-05-04 03:38 | 33.93410 | -118.38097 | 133 ft | 7 kts | 354° |
| 2026-05-04 03:38 | 33.93433 | -118.38110 | 131 ft | 5 kts | 328° |
| 2026-05-04 03:38 | 33.93456 | -118.38126 | 129 ft | 0 kts | 344° |
| 2026-05-04 03:42 | 33.93466 | -118.38126 | 131 ft | 7 kts | 354° |
| 2026-05-04 03:42 | 33.93560 | -118.38128 | 131 ft | 10 kts | 352° |
| 2026-05-04 03:42 | 33.93587 | -118.38138 | 127 ft | 3 kts | 339° |
| 2026-05-04 03:42 | 33.93599 | -118.38148 | 130 ft | 0 kts | 313° |
| 2026-05-04 03:43 | 33.93599 | -118.38149 | 130 ft | 1 kts | 312° |
| 2026-05-04 03:43 | 33.93613 | -118.38189 | 129 ft | 9 kts | 280° |
| 2026-05-04 03:44 | 33.93614 | -118.38210 | 130 ft | 0 kts | 274° |
| 2026-05-04 03:44 | 33.93624 | -118.38243 | 125 ft | 12 kts | 295° |
| 2026-05-04 03:45 | 33.93666 | -118.38293 | 125 ft | 5 kts | 320° |
| 2026-05-04 03:45 | 33.93710 | -118.38335 | 125 ft | 10 kts | 310° |
| 2026-05-04 03:45 | 33.93721 | -118.38413 | 126 ft | 0 kts | 265° |
| 2026-05-04 03:46 | 33.93708 | -118.38568 | 129 ft | 55 kts | 263° |
| 2026-05-04 03:46 | 33.93624 | -118.39352 | 129 ft | 131 kts | 263° |
| 2026-05-04 03:46 | 33.93511 | -118.40608 | 486 ft | 155 kts | 262° |
| 2026-05-04 03:46 | 33.93366 | -118.41931 | 1268 ft | 165 kts | 260° |
| 2026-05-04 03:47 | 33.93173 | -118.43370 | 1957 ft | 183 kts | 257° |
| 2026-05-04 03:47 | 33.92872 | -118.44868 | 2834 ft | 186 kts | 253° |
| 2026-05-04 03:47 | 33.92513 | -118.46374 | 3701 ft | 189 kts | 254° |
| 2026-05-04 03:47 | 33.92122 | -118.47917 | 4500 ft | 197 kts | 251° |
| 2026-05-04 03:48 | 33.91674 | -118.49520 | 5203 ft | 204 kts | 247° |
| 2026-05-04 03:48 | 33.91113 | -118.51153 | 5667 ft | 225 kts | 248° |
| 2026-05-04 03:48 | 33.90487 | -118.52961 | 6024 ft | 239 kts | 248° |
| 2026-05-04 03:48 | 33.89841 | -118.54820 | 6602 ft | 242 kts | 248° |
| 2026-05-04 03:49 | 33.89188 | -118.56695 | 7139 ft | 244 kts | 248° |
| 2026-05-04 03:49 | 33.88357 | -118.58469 | 7620 ft | 246 kts | 228° |
| 2026-05-04 03:49 | 33.86938 | -118.59599 | 8152 ft | 249 kts | 200° |
| 2026-05-04 03:49 | 33.85206 | -118.59725 | 8872 ft | 255 kts | 170° |
| 2026-05-04 03:50 | 33.83600 | -118.58786 | 9866 ft | 263 kts | 143° |
| 2026-05-04 03:50 | 33.82501 | -118.57030 | 10708 ft | 275 kts | 116° |
| 2026-05-04 03:50 | 33.82131 | -118.54746 | 11558 ft | 286 kts | 90° |
| 2026-05-04 03:50 | 33.82625 | -118.52408 | 12377 ft | 295 kts | 64° |
| 2026-05-04 03:51 | 33.83774 | -118.50333 | 13166 ft | 302 kts | 53° |
| 2026-05-04 03:51 | 33.85105 | -118.48339 | 13844 ft | 312 kts | 51° |
| 2026-05-04 03:51 | 33.86483 | -118.46315 | 14351 ft | 312 kts | 51° |
| 2026-05-04 03:51 | 33.87896 | -118.44247 | 14812 ft | 330 kts | 51° |
| 2026-05-04 03:52 | 33.89341 | -118.42070 | 15434 ft | 337 kts | 46° |
| 2026-05-04 03:52 | 33.91097 | -118.40177 | 16109 ft | 342 kts | 35° |
| 2026-05-04 03:52 | 33.93016 | -118.38442 | 16796 ft | 348 kts | 32° |
| 2026-05-04 03:52 | 33.94991 | -118.36695 | 17478 ft | 356 kts | 33° |
| 2026-05-04 03:53 | 33.96914 | -118.34766 | 18210 ft | 365 kts | 39° |
| 2026-05-04 03:53 | 33.98724 | -118.32575 | 18845 ft | 372 kts | 44° |
| 2026-05-04 03:53 | 34.00418 | -118.30181 | 19489 ft | 378 kts | 49° |
| 2026-05-04 03:53 | 34.02032 | -118.27652 | 20127 ft | 384 kts | 51° |
| 2026-05-04 03:54 | 34.03606 | -118.25028 | 20676 ft | 388 kts | 52° |
| 2026-05-04 03:54 | 34.05156 | -118.22354 | 21246 ft | 392 kts | 53° |
| 2026-05-04 03:54 | 34.06715 | -118.19622 | 21854 ft | 397 kts | 53° |
| 2026-05-04 03:54 | 34.08161 | -118.17053 | 23688 ft | 343 kts | 53° |
| 2026-05-04 03:55 | 34.09505 | -118.14659 | 24203 ft | 352 kts | 52° |
| 2026-05-04 03:55 | 34.10896 | -118.12202 | 24477 ft | 357 kts | 52° |
| 2026-05-04 03:55 | 34.12306 | -118.09711 | 24822 ft | 361 kts | 52° |
| 2026-05-04 03:55 | 34.13728 | -118.07192 | 25186 ft | 364 kts | 52° |
| 2026-05-04 03:56 | 34.15159 | -118.04654 | 25553 ft | 367 kts | 52° |
| 2026-05-04 03:56 | 34.16603 | -118.02091 | 25929 ft | 370 kts | 52° |
| 2026-05-04 03:56 | 34.18058 | -117.99508 | 26319 ft | 373 kts | 52° |
| 2026-05-04 03:56 | 34.19522 | -117.96906 | 26693 ft | 376 kts | 52° |
| 2026-05-04 03:57 | 34.20999 | -117.94280 | 27029 ft | 380 kts | 52° |
| 2026-05-04 03:57 | 34.22485 | -117.91636 | 27452 ft | 381 kts | 52° |
| 2026-05-04 03:57 | 34.23982 | -117.88973 | 27809 ft | 384 kts | 52° |
| 2026-05-04 03:57 | 34.25480 | -117.86303 | 28178 ft | 384 kts | 52° |
| 2026-05-04 03:58 | 34.28487 | -117.80939 | 28916 ft | 389 kts | 51° |
| 2026-05-04 03:58 | 34.31570 | -117.75438 | 29013 ft | 397 kts | 52° |
| 2026-05-04 03:59 | 34.34667 | -117.69909 | 28968 ft | 397 kts | 51° |
| 2026-05-04 03:59 | 34.37846 | -117.64486 | 28964 ft | 395 kts | 50° |
| 2026-05-04 04:00 | 34.41067 | -117.59101 | 28941 ft | 395 kts | 50° |
| 2026-05-04 04:00 | 34.44314 | -117.53678 | 28966 ft | 407 kts | 50° |
| 2026-05-04 04:01 | 34.46002 | -117.50859 | 28968 ft | 421 kts | 50° |
| 2026-05-04 04:01 | 34.47748 | -117.47941 | 28976 ft | 434 kts | 50° |
| 2026-05-04 04:01 | 34.49547 | -117.44928 | 28987 ft | 448 kts | 50° |
| 2026-05-04 04:01 | 34.51399 | -117.41821 | 28993 ft | 461 kts | 51° |
| 2026-05-04 04:02 | 34.53299 | -117.38626 | 28990 ft | 473 kts | 51° |
| 2026-05-04 04:02 | 34.55242 | -117.35353 | 28993 ft | 484 kts | 51° |
| 2026-05-04 04:02 | 34.57228 | -117.32000 | 28995 ft | 495 kts | 51° |
| 2026-05-04 04:02 | 34.59257 | -117.28571 | 28993 ft | 507 kts | 51° |
| 2026-05-04 04:03 | 34.61341 | -117.25044 | 28982 ft | 520 kts | 51° |
| 2026-05-04 04:03 | 34.63479 | -117.21428 | 28963 ft | 534 kts | 52° |
| 2026-05-04 04:03 | 34.65674 | -117.17711 | 28938 ft | 548 kts | 52° |
| 2026-05-04 04:03 | 34.67921 | -117.13903 | 28920 ft | 560 kts | 52° |
| 2026-05-04 04:04 | 34.72443 | -117.06220 | 28837 ft | 564 kts | 52° |
| 2026-05-04 04:04 | 34.77031 | -116.98409 | 28851 ft | 564 kts | 52° |
| 2026-05-04 04:05 | 34.81555 | -116.90693 | 28873 ft | 564 kts | 52° |
| 2026-05-04 04:05 | 34.86089 | -116.82915 | 28874 ft | 563 kts | 52° |
| 2026-05-04 04:06 | 34.90643 | -116.75077 | 28870 ft | 563 kts | 53° |
| 2026-05-04 04:06 | 34.95117 | -116.67246 | 28857 ft | 563 kts | 53° |
| 2026-05-04 04:07 | 34.99537 | -116.59373 | 28622 ft | 562 kts | 54° |
| 2026-05-04 04:07 | 35.01736 | -116.55444 | 28347 ft | 561 kts | 54° |
| 2026-05-04 04:07 | 35.03911 | -116.51557 | 28089 ft | 547 kts | 54° |
| 2026-05-04 04:08 | 35.06042 | -116.47748 | 27679 ft | 541 kts | 54° |
| 2026-05-04 04:08 | 35.08160 | -116.43964 | 27302 ft | 540 kts | 54° |
| 2026-05-04 04:08 | 35.10382 | -116.40275 | 26839 ft | 538 kts | 49° |
| 2026-05-04 04:08 | 35.12771 | -116.36862 | 26347 ft | 533 kts | 45° |
| 2026-05-04 04:09 | 35.15309 | -116.33546 | 25853 ft | 535 kts | 43° |
| 2026-05-04 04:09 | 35.17902 | -116.30274 | 25382 ft | 536 kts | 43° |
| 2026-05-04 04:09 | 35.20498 | -116.27010 | 24899 ft | 535 kts | 43° |
| 2026-05-04 04:09 | 35.23059 | -116.23724 | 24428 ft | 533 kts | 44° |
| 2026-05-04 04:10 | 35.25559 | -116.20399 | 23959 ft | 530 kts | 45° |
| 2026-05-04 04:10 | 35.28005 | -116.17069 | 23517 ft | 518 kts | 46° |
| 2026-05-04 04:10 | 35.30362 | -116.13821 | 23003 ft | 502 kts | 46° |
| 2026-05-04 04:10 | 35.32643 | -116.10666 | 22472 ft | 488 kts | 46° |
| 2026-05-04 04:11 | 35.34859 | -116.07604 | 21957 ft | 471 kts | 46° |
| 2026-05-04 04:11 | 35.36994 | -116.04656 | 21444 ft | 454 kts | 46° |
| 2026-05-04 04:11 | 35.39059 | -116.01812 | 20948 ft | 439 kts | 46° |
| 2026-05-04 04:11 | 35.41057 | -115.99063 | 20445 ft | 426 kts | 47° |
| 2026-05-04 04:12 | 35.42996 | -115.96395 | 20035 ft | 411 kts | 47° |
| 2026-05-04 04:12 | 35.44869 | -115.93819 | 19676 ft | 400 kts | 47° |
| 2026-05-04 04:12 | 35.46700 | -115.91296 | 19324 ft | 393 kts | 47° |
| 2026-05-04 04:12 | 35.48508 | -115.88806 | 18988 ft | 388 kts | 47° |
| 2026-05-04 04:13 | 35.50290 | -115.86348 | 18862 ft | 384 kts | 47° |
| 2026-05-04 04:13 | 35.52061 | -115.83903 | 18837 ft | 383 kts | 48° |
| 2026-05-04 04:13 | 35.53827 | -115.81461 | 18835 ft | 382 kts | 48° |
| 2026-05-04 04:13 | 35.55587 | -115.79022 | 18834 ft | 381 kts | 48° |
| 2026-05-04 04:14 | 35.57342 | -115.76584 | 18835 ft | 381 kts | 48° |
| 2026-05-04 04:14 | 35.59098 | -115.74155 | 18837 ft | 378 kts | 48° |
| 2026-05-04 04:14 | 35.60825 | -115.71796 | 18834 ft | 369 kts | 47° |
| 2026-05-04 04:14 | 35.62547 | -115.69458 | 18620 ft | 369 kts | 47° |
| 2026-05-04 04:15 | 35.64258 | -115.67139 | 18278 ft | 363 kts | 48° |
| 2026-05-04 04:15 | 35.65785 | -115.65071 | 17945 ft | 360 kts | 48° |
| 2026-05-04 04:15 | 35.67453 | -115.62809 | 17523 ft | 355 kts | 48° |
| 2026-05-04 04:15 | 35.69104 | -115.60569 | 17144 ft | 352 kts | 49° |
| 2026-05-04 04:16 | 35.70740 | -115.58347 | 16755 ft | 349 kts | 49° |
| 2026-05-04 04:16 | 35.72417 | -115.56218 | 16364 ft | 346 kts | 40° |
| 2026-05-04 04:16 | 35.74361 | -115.54489 | 15991 ft | 343 kts | 32° |
| 2026-05-04 04:16 | 35.76403 | -115.52989 | 15620 ft | 341 kts | 30° |
| 2026-05-04 04:17 | 35.78464 | -115.51562 | 15249 ft | 339 kts | 30° |
| 2026-05-04 04:17 | 35.80517 | -115.50154 | 14874 ft | 336 kts | 30° |
| 2026-05-04 04:17 | 35.82550 | -115.48751 | 14513 ft | 334 kts | 30° |
| 2026-05-04 04:17 | 35.84569 | -115.47349 | 14163 ft | 332 kts | 31° |
| 2026-05-04 04:18 | 35.86571 | -115.45950 | 13814 ft | 329 kts | 31° |
| 2026-05-04 04:18 | 35.88545 | -115.44565 | 13430 ft | 325 kts | 31° |
| 2026-05-04 04:18 | 35.90498 | -115.43192 | 13041 ft | 321 kts | 31° |
| 2026-05-04 04:18 | 35.92416 | -115.41847 | 12849 ft | 311 kts | 31° |
| 2026-05-04 04:19 | 35.94269 | -115.40549 | 12503 ft | 303 kts | 31° |
| 2026-05-04 04:19 | 35.96078 | -115.39282 | 12123 ft | 296 kts | 31° |
| 2026-05-04 04:19 | 35.97841 | -115.38018 | 11731 ft | 290 kts | 34° |
| 2026-05-04 04:19 | 35.99398 | -115.36537 | 11364 ft | 283 kts | 47° |
| 2026-05-04 04:20 | 36.00578 | -115.34650 | 10979 ft | 275 kts | 65° |
| 2026-05-04 04:20 | 36.01241 | -115.32487 | 10609 ft | 265 kts | 82° |
| 2026-05-04 04:20 | 36.01387 | -115.30259 | 10250 ft | 258 kts | 95° |
| 2026-05-04 04:20 | 36.01291 | -115.28059 | 9904 ft | 256 kts | 98° |
| 2026-05-04 04:21 | 36.01153 | -115.25872 | 9565 ft | 256 kts | 98° |
| 2026-05-04 04:21 | 36.01015 | -115.23683 | 9171 ft | 256 kts | 98° |
| 2026-05-04 04:21 | 36.00881 | -115.21507 | 8895 ft | 251 kts | 98° |
| 2026-05-04 04:21 | 36.00796 | -115.20097 | 8848 ft | 247 kts | 97° |
| 2026-05-04 04:22 | 36.00669 | -115.17946 | 8830 ft | 248 kts | 97° |
| 2026-05-04 04:22 | 36.00544 | -115.15823 | 8837 ft | 248 kts | 98° |
| 2026-05-04 04:22 | 36.00421 | -115.13726 | 8832 ft | 248 kts | 98° |
| 2026-05-04 04:22 | 36.00298 | -115.11604 | 8839 ft | 247 kts | 97° |
| 2026-05-04 04:23 | 36.00174 | -115.09487 | 8833 ft | 247 kts | 97° |
| 2026-05-04 04:23 | 36.00048 | -115.07347 | 8823 ft | 246 kts | 97° |
| 2026-05-04 04:23 | 35.99974 | -115.05257 | 8828 ft | 248 kts | 95° |
| 2026-05-04 04:23 | 35.99945 | -115.03077 | 8451 ft | 251 kts | 94° |
| 2026-05-04 04:24 | 35.99936 | -115.00920 | 8069 ft | 251 kts | 93° |
| 2026-05-04 04:24 | 35.99939 | -114.98787 | 7826 ft | 245 kts | 93° |
| 2026-05-04 04:24 | 35.99943 | -114.96677 | 7703 ft | 248 kts | 93° |
| 2026-05-04 04:24 | 35.99947 | -114.94549 | 7458 ft | 246 kts | 93° |
| 2026-05-04 04:25 | 35.99951 | -114.92440 | 7218 ft | 245 kts | 93° |
| 2026-05-04 04:25 | 35.99955 | -114.90358 | 6989 ft | 246 kts | 93° |
| 2026-05-04 04:25 | 35.99967 | -114.88222 | 6815 ft | 244 kts | 93° |
| 2026-05-04 04:25 | 35.99983 | -114.86118 | 6802 ft | 246 kts | 93° |
| 2026-05-04 04:26 | 36.00030 | -114.84007 | 6800 ft | 246 kts | 91° |
| 2026-05-04 04:26 | 36.00071 | -114.81892 | 6784 ft | 246 kts | 96° |
| 2026-05-04 04:26 | 35.99998 | -114.79780 | 6800 ft | 247 kts | 96° |
| 2026-05-04 04:26 | 35.99932 | -114.77648 | 6781 ft | 248 kts | 96° |
| 2026-05-04 04:27 | 35.99872 | -114.75516 | 6788 ft | 248 kts | 96° |
| 2026-05-04 04:27 | 35.99810 | -114.73383 | 6783 ft | 249 kts | 96° |
| 2026-05-04 04:27 | 35.99749 | -114.71249 | 6771 ft | 248 kts | 96° |
| 2026-05-04 04:27 | 35.99749 | -114.69121 | 6758 ft | 248 kts | 91° |
| 2026-05-04 04:28 | 35.99857 | -114.66995 | 6757 ft | 249 kts | 90° |
| 2026-05-04 04:28 | 35.99982 | -114.64860 | 6729 ft | 250 kts | 87° |
| 2026-05-04 04:28 | 36.00310 | -114.62741 | 6751 ft | 253 kts | 76° |
| 2026-05-04 04:28 | 36.00963 | -114.60723 | 6714 ft | 255 kts | 64° |
| 2026-05-04 04:29 | 36.01924 | -114.58882 | 6697 ft | 255 kts | 53° |
| 2026-05-04 04:29 | 36.03170 | -114.57271 | 6708 ft | 260 kts | 41° |
| 2026-05-04 04:29 | 36.04627 | -114.55983 | 6716 ft | 258 kts | 30° |
| 2026-05-04 04:29 | 36.06251 | -114.55058 | 6691 ft | 257 kts | 18° |
| 2026-05-04 04:30 | 36.07985 | -114.54530 | 6693 ft | 256 kts | 6° |
| 2026-05-04 04:30 | 36.09720 | -114.54625 | 6665 ft | 253 kts | 340° |
| 2026-05-04 04:30 | 36.11209 | -114.55729 | 6700 ft | 244 kts | 308° |
| 2026-05-04 04:30 | 36.12005 | -114.57498 | 6679 ft | 232 kts | 277° |
| 2026-05-04 04:31 | 36.11940 | -114.59434 | 6687 ft | 225 kts | 248° |
| 2026-05-04 04:31 | 36.11340 | -114.61200 | 6719 ft | 228 kts | 242° |
| 2026-05-04 04:31 | 36.10648 | -114.62952 | 6726 ft | 225 kts | 241° |
| 2026-05-04 04:31 | 36.09962 | -114.64649 | 6701 ft | 214 kts | 240° |
| 2026-05-04 04:32 | 36.09355 | -114.66305 | 6688 ft | 209 kts | 246° |
| 2026-05-04 04:32 | 36.08877 | -114.68016 | 6748 ft | 213 kts | 249° |
| 2026-05-04 04:32 | 36.08497 | -114.69782 | 6731 ft | 212 kts | 253° |
| 2026-05-04 04:32 | 36.08213 | -114.71565 | 6738 ft | 211 kts | 257° |
| 2026-05-04 04:33 | 36.07999 | -114.73385 | 6775 ft | 206 kts | 259° |
| 2026-05-04 04:33 | 36.07853 | -114.75084 | 6753 ft | 196 kts | 260° |
| 2026-05-04 04:33 | 36.07729 | -114.76727 | 6748 ft | 194 kts | 260° |
| 2026-05-04 04:33 | 36.07591 | -114.78409 | 6769 ft | 195 kts | 261° |
| 2026-05-04 04:34 | 36.07484 | -114.80052 | 6759 ft | 194 kts | 262° |
| 2026-05-04 04:34 | 36.07400 | -114.81746 | 6598 ft | 194 kts | 263° |
| 2026-05-04 04:34 | 36.07364 | -114.83399 | 6380 ft | 195 kts | 266° |
| 2026-05-04 04:34 | 36.07362 | -114.85077 | 6141 ft | 196 kts | 266° |
| 2026-05-04 04:35 | 36.07359 | -114.86763 | 5898 ft | 196 kts | 266° |
| 2026-05-04 04:35 | 36.07358 | -114.88443 | 5634 ft | 194 kts | 266° |
| 2026-05-04 04:35 | 36.07358 | -114.90105 | 5397 ft | 193 kts | 266° |
| 2026-05-04 04:35 | 36.07357 | -114.91768 | 5156 ft | 193 kts | 267° |
| 2026-05-04 04:36 | 36.07357 | -114.93417 | 4898 ft | 191 kts | 267° |
| 2026-05-04 04:36 | 36.07358 | -114.95053 | 4672 ft | 191 kts | 266° |
| 2026-05-04 04:36 | 36.07357 | -114.96695 | 4435 ft | 191 kts | 267° |
| 2026-05-04 04:36 | 36.07358 | -114.98309 | 4183 ft | 178 kts | 267° |
| 2026-05-04 04:37 | 36.07358 | -115.02337 | 3612 ft | 150 kts | 267° |
| 2026-05-04 04:37 | 36.07341 | -115.03623 | 3457 ft | 150 kts | 268° |
| 2026-05-04 04:38 | 36.07344 | -115.04905 | 3233 ft | 150 kts | 269° |
| 2026-05-04 04:38 | 36.07372 | -115.06184 | 3040 ft | 148 kts | 268° |
| 2026-05-04 04:38 | 36.07374 | -115.07462 | 2938 ft | 149 kts | 267° |
| 2026-05-04 04:38 | 36.07353 | -115.08736 | 2828 ft | 147 kts | 268° |
| 2026-05-04 04:39 | 36.07365 | -115.09943 | 2555 ft | 136 kts | 269° |
| 2026-05-04 04:39 | 36.07385 | -115.11177 | 2360 ft | 156 kts | 266° |
| 2026-05-04 04:39 | 36.07371 | -115.12423 | 2117 ft | 134 kts | 268° |
| 2026-05-04 04:39 | 36.07363 | -115.13460 | 2088 ft | 98 kts | 270° |
| 2026-05-04 04:40 | 36.07364 | -115.14059 | 2111 ft | 41 kts | 270° |
| 2026-05-04 04:40 | 36.07392 | -115.14397 | 2129 ft | 43 kts | 288° |
| 2026-05-04 04:40 | 36.07487 | -115.14615 | 2133 ft | 0 kts | 309° |
| 2026-05-04 04:42 | 36.07500 | -115.14628 | 2134 ft | 4 kts | 324° |
| 2026-05-04 04:42 | 36.07593 | -115.14662 | 2140 ft | 27 kts | 349° |
| 2026-05-04 04:42 | 36.07753 | -115.14627 | 2134 ft | 15 kts | 50° |
| 2026-05-04 04:42 | 36.07769 | -115.14486 | 2129 ft | 21 kts | 94° |
| 2026-05-04 04:43 | 36.07750 | -115.14236 | 2118 ft | 37 kts | 91° |
| 2026-05-04 04:43 | 36.07754 | -115.13909 | 2109 ft | 38 kts | 90° |
| 2026-05-04 04:43 | 36.07752 | -115.13585 | 2096 ft | 38 kts | 90° |
| 2026-05-04 04:43 | 36.07752 | -115.13260 | 2081 ft | 39 kts | 90° |
| 2026-05-04 04:44 | 36.07753 | -115.12921 | 2065 ft | 40 kts | 93° |
| 2026-05-04 04:44 | 36.07784 | -115.12619 | 2050 ft | 29 kts | 47° |
| 2026-05-04 04:44 | 36.07911 | -115.12617 | 2051 ft | 14 kts | 341° |
| 2026-05-04 04:44 | 36.07978 | -115.12641 | 2055 ft | 9 kts | 347° |
| 2026-05-04 04:45 | 36.08041 | -115.12647 | 2053 ft | 12 kts | 1° |
| 2026-05-04 04:45 | 36.08109 | -115.12631 | 2055 ft | 5 kts | 30° |
| 2026-05-04 04:45 | 36.08116 | -115.12620 | 2053 ft | 1 kts | 59° |
| 2026-05-04 04:47 | 36.08121 | -115.12556 | 2050 ft | 0 kts | 89° |